Terminal Aerodrome Forecast
Issued by NWS

Home | Current Version | Previous Version | Text Only | Print | Product List | Glossary On
Versions: 1 2 3 4 5 6 7 8 9 10 11 12 13 14 15 16 17 18 19
000
FTUS43 KGRR 222353 CCA
TAFLAN
TAF COR
KLAN 222353Z 2300/2324 22011KT P6SM -SHRA VCTS OVC035CB
      TEMPO 2300/2302 19020G30KT 2SM TSRA BR OVC025CB
     FM230200 21016G23KT P6SM VCTS OVC040CB
      TEMPO 2302/2306 4SM TSRA BR OVC025CB
     FM230600 21012KT 6SM -SHRA BR VCTS OVC015CB
     FM230900 32008KT P6SM OVC025
     FM231600 32008KT P6SM SCT035=

USA.gov is the U.S. government's official web portal to all federal, state and local government web resources and services.